Time;durP1;ratioP1;P1;durP2;ratioP2;P2;SDS_P1;SDS_P2;PMS_P1;PMS_P2;Temp;Humidity;BMP_temperature;BMP_pressure;BME280_temperature;BME280_humidity;BME280_pressure;Samples;Min_cycle;Max_cycle;Signal;HPM_P1;HPM_P2
2022/06/15 00:00:31;;;;;;;1.67;1.00;;;12.20;99.90;;;;;;5066098;28;20051;-69
2022/06/15 00:02:56;;;;;;;3.35;1.05;;;12.10;99.90;;;;;;5064165;28;20403;-69
2022/06/15 00:05:22;;;;;;;1.20;0.70;;;12.10;99.90;;;;;;5065904;28;20064;-69
2022/06/15 00:07:48;;;;;;;1.48;0.73;;;12.10;99.90;;;;;;5063273;28;20056;-69
2022/06/15 00:10:13;;;;;;;1.20;0.80;;;12.10;99.90;;;;;;5071018;28;20040;-69
2022/06/15 00:12:39;;;;;;;1.00;0.75;;;12.00;99.90;;;;;;5068272;28;20081;-69
2022/06/15 00:15:06;;;;;;;1.45;0.80;;;12.00;99.90;;;;;;5052040;28;20154;-69
2022/06/15 00:17:32;;;;;;;1.17;0.68;;;12.00;99.90;;;;;;5053165;28;20087;-69
2022/06/15 00:19:58;;;;;;;1.33;0.80;;;12.00;99.90;;;;;;5068064;28;20036;-69
2022/06/15 00:22:24;;;;;;;0.68;0.57;;;12.00;99.90;;;;;;5051709;28;20133;-70
2022/06/15 00:24:49;;;;;;;1.85;0.68;;;12.10;99.90;;;;;;5053034;28;20036;-69
2022/06/15 00:27:15;;;;;;;1.92;0.70;;;12.10;99.90;;;;;;5073131;28;20036;-69
2022/06/15 00:29:41;;;;;;;1.15;0.70;;;12.00;99.90;;;;;;5071018;28;20151;-69
2022/06/15 00:32:07;;;;;;;1.77;0.90;;;12.00;99.90;;;;;;5071583;28;20047;-69
2022/06/15 00:34:33;;;;;;;1.55;0.73;;;12.00;99.90;;;;;;5067752;28;20128;-69
2022/06/15 00:36:59;;;;;;;1.25;0.88;;;12.00;99.90;;;;;;5068787;28;20124;-69
2022/06/15 00:39:25;;;;;;;0.90;0.60;;;11.90;99.90;;;;;;5068159;28;20053;-69
2022/06/15 00:41:51;;;;;;;0.90;0.60;;;11.90;99.90;;;;;;5075399;28;20094;-69
2022/06/15 00:44:19;;;;;;;1.02;0.57;;;11.90;99.90;;;;;;5073595;28;20080;-69
2022/06/15 00:46:58;;;;;;;0.80;0.55;;;11.90;99.90;;;;;;5068271;28;20052;-69
2022/06/15 00:49:50;;;;;;;0.75;0.50;;;12.00;99.90;;;;;;5078424;28;20110;-69
2022/06/15 00:52:22;;;;;;;0.50;0.50;;;11.90;99.90;;;;;;5083153;28;20076;-69
2022/06/15 00:54:50;;;;;;;1.02;0.70;;;11.90;99.90;;;;;;5067541;28;20052;-69
2022/06/15 00:57:16;;;;;;;0.80;0.60;;;11.90;99.90;;;;;;5068499;28;20487;-69
2022/06/15 00:59:52;;;;;;;0.70;0.60;;;11.90;99.90;;;;;;5067533;28;20133;-69
2022/06/15 01:02:18;;;;;;;1.25;0.60;;;11.80;99.90;;;;;;5067161;28;20388;-69
2022/06/15 01:04:50;;;;;;;1.48;0.57;;;11.90;99.90;;;;;;5065754;28;20043;-69
2022/06/15 01:07:37;;;;;;;0.98;0.70;;;11.90;99.90;;;;;;5068689;28;20526;-69
2022/06/15 01:10:20;;;;;;;1.35;0.63;;;11.80;99.90;;;;;;5046163;28;20055;-69
2022/06/15 01:13:10;;;;;;;0.70;0.50;;;11.80;99.90;;;;;;5071992;28;20052;-69
2022/06/15 01:15:55;;;;;;;1.00;0.60;;;11.70;99.90;;;;;;5068130;28;20074;-69
2022/06/15 01:18:42;;;;;;;0.88;0.63;;;11.70;99.90;;;;;;5049519;28;20054;-69
2022/06/15 01:21:16;;;;;;;1.35;0.70;;;11.70;99.90;;;;;;5057151;28;20036;-69
2022/06/15 01:24:00;;;;;;;1.40;0.70;;;11.70;99.90;;;;;;5067967;28;20379;-69
2022/06/15 01:26:44;;;;;;;0.68;0.60;;;11.60;99.90;;;;;;5067891;28;20044;-69
2022/06/15 01:29:51;;;;;;;0.85;0.63;;;11.60;99.90;;;;;;5066402;28;20068;-69
2022/06/15 01:32:38;;;;;;;1.10;0.63;;;11.70;99.90;;;;;;5066940;28;20051;-69
2022/06/15 01:35:24;;;;;;;1.15;0.73;;;11.60;99.90;;;;;;5065497;28;20123;-69
2022/06/15 01:38:19;;;;;;;0.95;0.80;;;11.60;99.90;;;;;;5067220;28;20090;-69
2022/06/15 01:40:49;;;;;;;1.13;0.68;;;11.60;99.90;;;;;;5062181;28;20040;-69
2022/06/15 01:43:19;;;;;;;0.90;0.50;;;11.60;99.90;;;;;;5069522;28;20055;-69
2022/06/15 01:45:47;;;;;;;0.60;0.50;;;11.50;99.90;;;;;;5080251;28;20129;-69
2022/06/15 01:48:14;;;;;;;1.30;0.50;;;11.40;99.90;;;;;;5069392;28;20048;-69
2022/06/15 01:50:52;;;;;;;1.02;0.60;;;11.40;99.90;;;;;;5069127;28;20060;-69
2022/06/15 01:53:39;;;;;;;0.55;0.40;;;11.30;99.90;;;;;;5068171;28;20171;-69
2022/06/15 01:56:12;;;;;;;1.65;0.70;;;11.30;99.90;;;;;;5083932;28;20066;-70
2022/06/15 01:58:41;;;;;;;0.57;0.57;;;11.30;99.90;;;;;;5081508;28;20055;-69
2022/06/15 02:01:20;;;;;;;0.90;0.60;;;11.20;99.90;;;;;;5059697;28;20538;-69
2022/06/15 02:03:50;;;;;;;0.63;0.60;;;11.20;99.90;;;;;;5070290;28;20048;-70
2022/06/15 02:06:28;;;;;;;0.65;0.50;;;11.20;99.90;;;;;;5067019;28;20040;-70
2022/06/15 02:09:21;;;;;;;0.65;0.50;;;11.10;99.90;;;;;;5077543;28;20515;-69
2022/06/15 02:11:47;;;;;;;1.00;0.50;;;11.00;99.90;;;;;;5066065;28;20094;-69
2022/06/15 02:14:25;;;;;;;0.43;0.40;;;11.00;99.90;;;;;;5076864;28;20056;-70
2022/06/15 02:17:02;;;;;;;1.42;0.52;;;10.90;99.90;;;;;;5064082;28;20102;-70
2022/06/15 02:19:34;;;;;;;0.93;0.65;;;10.90;99.90;;;;;;5066357;28;20463;-69
2022/06/15 02:22:06;;;;;;;0.80;0.50;;;10.80;99.90;;;;;;5066851;28;20037;-69
2022/06/15 02:24:33;;;;;;;0.80;0.68;;;10.80;99.90;;;;;;5070012;28;20091;-69
2022/06/15 02:27:00;;;;;;;1.50;0.55;;;10.80;99.90;;;;;;5054725;28;20070;-69
2022/06/15 02:29:28;;;;;;;0.90;0.65;;;10.80;99.90;;;;;;5054141;28;20057;-69
2022/06/15 02:31:55;;;;;;;0.73;0.47;;;10.70;99.90;;;;;;5063105;28;20086;-69
2022/06/15 02:34:21;;;;;;;1.30;0.63;;;10.80;99.90;;;;;;5075602;28;20059;-69
2022/06/15 02:36:47;;;;;;;0.40;0.40;;;10.80;99.90;;;;;;5067063;28;20037;-70
2022/06/15 02:39:12;;;;;;;1.52;0.82;;;10.70;99.90;;;;;;5073104;28;20400;-70
2022/06/15 02:41:38;;;;;;;1.10;1.00;;;10.70;99.90;;;;;;5084183;28;20085;-70
2022/06/15 02:44:06;;;;;;;1.05;0.93;;;10.70;99.90;;;;;;5064747;28;20044;-70
2022/06/15 02:46:37;;;;;;;1.27;1.00;;;10.60;99.90;;;;;;5067570;28;20032;-70
2022/06/15 02:49:04;;;;;;;1.17;0.93;;;10.60;99.90;;;;;;5066786;28;20072;-70
2022/06/15 02:51:48;;;;;;;1.02;0.85;;;10.60;99.90;;;;;;5067481;28;20032;-70
2022/06/15 02:54:35;;;;;;;1.17;1.00;;;10.60;99.90;;;;;;5052753;28;20562;-69
2022/06/15 02:57:01;;;;;;;1.13;1.00;;;10.50;99.90;;;;;;5065395;28;20414;-70
2022/06/15 02:59:27;;;;;;;1.00;0.90;;;10.50;99.90;;;;;;5058290;28;20032;-69
2022/06/15 03:01:55;;;;;;;1.38;0.82;;;10.40;99.90;;;;;;5074249;28;20048;-70
2022/06/15 03:04:20;;;;;;;1.25;0.70;;;10.50;99.90;;;;;;5073315;28;20057;-69
2022/06/15 03:06:46;;;;;;;1.17;0.73;;;10.50;99.90;;;;;;5071344;28;20515;-70
2022/06/15 03:09:12;;;;;;;0.50;0.50;;;10.60;99.90;;;;;;5055552;28;20397;-70
2022/06/15 03:11:40;;;;;;;1.02;0.68;;;10.60;99.90;;;;;;5077133;28;20033;-70
2022/06/15 03:14:06;;;;;;;0.93;0.60;;;10.60;99.90;;;;;;5078285;28;20051;-69
2022/06/15 03:16:32;;;;;;;0.75;0.52;;;10.70;99.90;;;;;;5061061;28;20052;-69
2022/06/15 03:18:58;;;;;;;0.40;0.40;;;10.70;99.90;;;;;;5058132;28;20130;-70
2022/06/15 03:21:24;;;;;;;0.60;0.40;;;10.80;99.90;;;;;;5055360;28;20058;-69
2022/06/15 03:23:50;;;;;;;0.65;0.50;;;10.80;99.90;;;;;;5069608;28;20044;-70
2022/06/15 03:26:15;;;;;;;1.48;0.80;;;10.90;99.90;;;;;;5066663;28;20055;-70
2022/06/15 03:28:41;;;;;;;1.13;0.70;;;11.00;99.90;;;;;;5072822;28;20048;-70
2022/06/15 03:31:07;;;;;;;0.80;0.60;;;11.10;99.90;;;;;;5054113;28;20071;-70
2022/06/15 03:33:33;;;;;;;1.33;0.70;;;11.30;99.90;;;;;;5077799;28;20121;-70
2022/06/15 03:35:59;;;;;;;1.27;0.75;;;11.40;99.90;;;;;;5068779;28;20044;-70
2022/06/15 03:38:25;;;;;;;1.23;0.70;;;11.50;99.90;;;;;;5074109;28;20471;-70
2022/06/15 03:40:51;;;;;;;0.50;0.50;;;11.50;99.90;;;;;;5069507;28;20055;-70
2022/06/15 03:43:17;;;;;;;0.93;0.55;;;11.60;99.90;;;;;;5069695;28;20040;-70
2022/06/15 03:45:43;;;;;;;0.68;0.68;;;11.60;99.90;;;;;;5086121;28;20495;-77
2022/06/15 03:48:10;;;;;;;2.78;0.98;;;11.80;99.90;;;;;;5077309;28;20470;-77
2022/06/15 03:50:37;;;;;;;1.20;0.95;;;11.90;99.90;;;;;;5053672;28;20046;-77
2022/06/15 03:53:04;;;;;;;1.40;0.90;;;12.00;99.90;;;;;;5082076;28;20506;-78
2022/06/15 03:55:31;;;;;;;1.83;1.13;;;12.00;99.90;;;;;;5079812;28;20080;-77
2022/06/15 03:57:57;;;;;;;2.05;1.10;;;12.10;99.90;;;;;;5074929;28;20049;-77
2022/06/15 04:00:23;;;;;;;;;;;12.20;99.90;;;;;;5069372;28;20041;-77
2022/06/15 04:02:50;;;;;;;1.27;1.00;;;12.20;99.90;;;;;;5073639;28;20403;-77
2022/06/15 04:05:19;;;;;;;1.55;1.02;;;12.30;99.90;;;;;;5075640;28;20345;-77
2022/06/15 04:10:29;;;;;;;1.05;0.80;;;12.40;99.90;;;;;;5074461;28;20083;-77
2022/06/15 04:12:55;;;;;;;1.45;0.77;;;12.50;99.90;;;;;;5069626;28;20124;-77
2022/06/15 04:15:21;;;;;;;1.65;1.30;;;12.60;99.90;;;;;;5068461;28;20048;-76
2022/06/15 04:17:47;;;;;;;2.42;1.00;;;12.60;99.90;;;;;;5070687;28;20047;-77
2022/06/15 04:20:33;;;;;;;2.78;1.00;;;12.70;99.90;;;;;;5068655;28;20555;-77
2022/06/15 04:23:07;;;;;;;2.45;1.30;;;12.70;99.90;;;;;;5067425;28;20136;-77
2022/06/15 04:25:39;;;;;;;1.95;1.10;;;12.90;99.90;;;;;;5067449;28;20047;-77
2022/06/15 04:28:05;;;;;;;3.08;1.08;;;13.00;99.90;;;;;;5067835;28;20561;-77
2022/06/15 04:30:31;;;;;;;1.60;1.10;;;13.10;99.90;;;;;;5068665;28;20404;-77
2022/06/15 04:32:57;;;;;;;1.67;1.00;;;13.20;99.90;;;;;;5068433;28;20037;-77
2022/06/15 04:35:23;;;;;;;1.95;0.98;;;13.30;99.90;;;;;;5068217;28;20044;-77
2022/06/15 04:37:49;;;;;;;1.45;1.00;;;13.20;99.90;;;;;;5075892;28;20032;-77
2022/06/15 04:40:15;;;;;;;2.08;1.00;;;13.20;99.90;;;;;;5086781;28;20063;-77
2022/06/15 04:42:42;;;;;;;1.70;1.15;;;13.40;99.90;;;;;;5082022;28;20032;-77
2022/06/15 04:45:09;;;;;;;1.50;0.77;;;13.40;99.90;;;;;;5067276;28;20076;-77
2022/06/15 04:47:36;;;;;;;1.15;0.88;;;13.50;99.90;;;;;;5066135;28;20507;-77
2022/06/15 04:50:02;;;;;;;1.08;0.70;;;13.50;99.90;;;;;;5049365;28;20130;-78
2022/06/15 04:52:28;;;;;;;1.10;0.80;;;13.50;99.90;;;;;;5058442;28;20048;-77
2022/06/15 04:54:54;;;;;;;1.88;0.90;;;13.50;99.90;;;;;;5071576;28;20075;-77
2022/06/15 04:57:20;;;;;;;1.02;0.68;;;13.60;99.90;;;;;;5038806;28;20045;-78
2022/06/15 04:59:45;;;;;;;1.45;0.80;;;13.60;99.90;;;;;;5055442;28;20036;-77
2022/06/15 05:02:11;;;;;;;1.17;0.73;;;13.70;99.90;;;;;;5057893;28;20040;-77
2022/06/15 05:04:37;;;;;;;1.95;0.93;;;13.80;99.90;;;;;;5060439;28;20046;-78
2022/06/15 05:07:02;;;;;;;1.48;0.82;;;13.80;99.90;;;;;;5059371;28;20476;-77
2022/06/15 05:09:28;;;;;;;1.88;0.82;;;13.90;99.90;;;;;;5067467;28;20068;-76
2022/06/15 05:11:54;;;;;;;2.35;1.40;;;13.90;99.90;;;;;;5044815;28;20064;-76
2022/06/15 05:14:20;;;;;;;1.38;1.00;;;14.00;99.90;;;;;;5059267;28;20083;-76
2022/06/15 05:16:46;;;;;;;1.95;1.05;;;14.00;99.90;;;;;;5060174;28;20131;-77
2022/06/15 05:19:12;;;;;;;1.48;1.08;;;14.00;99.90;;;;;;5058576;28;20052;-77
2022/06/15 05:21:39;;;;;;;1.10;0.90;;;14.00;99.90;;;;;;5040726;28;20048;-77
2022/06/15 05:24:05;;;;;;;1.02;0.80;;;14.00;99.90;;;;;;5055226;28;20041;-77
2022/06/15 05:26:31;;;;;;;1.67;0.80;;;14.00;99.90;;;;;;5068024;28;20703;-78
2022/06/15 05:28:56;;;;;;;2.88;1.10;;;14.10;99.90;;;;;;5050693;28;20063;-78
2022/06/15 05:31:22;;;;;;;2.22;1.40;;;14.10;99.90;;;;;;5053422;28;20543;-78
2022/06/15 05:33:55;;;;;;;;;;;14.10;99.90;;;;;;5065351;28;20171;-78
2022/06/15 05:36:30;;;;;;;1.25;0.95;;;14.20;99.90;;;;;;5061329;28;19978;-78
2022/06/15 05:38:56;;;;;;;1.80;1.10;;;14.20;99.90;;;;;;5051948;28;20611;-75
2022/06/15 05:41:22;;;;;;;;;;;14.30;99.90;;;;;;5058226;28;20044;-77
2022/06/15 05:43:49;;;;;;;1.77;1.13;;;14.30;99.90;;;;;;5077731;28;19938;-77
2022/06/15 05:46:22;;;;;;;3.05;1.08;;;14.40;99.90;;;;;;5077511;28;20078;-80
2022/06/15 05:48:47;;;;;;;0.95;0.70;;;14.40;99.90;;;;;;5063836;28;20051;-78
2022/06/15 05:51:13;;;;;;;1.50;1.00;;;14.50;99.90;;;;;;5050120;28;20404;-77
2022/06/15 05:53:39;;;;;;;1.13;0.85;;;14.50;99.90;;;;;;5060782;28;20075;-71
2022/06/15 05:56:05;;;;;;;3.25;1.23;;;14.50;99.90;;;;;;5067408;28;20345;-71
2022/06/15 05:58:30;;;;;;;1.08;0.98;;;14.60;99.90;;;;;;5034841;28;20131;-70
2022/06/15 06:00:57;;;;;;;0.88;0.75;;;14.60;99.90;;;;;;5066100;28;20044;-70
2022/06/15 06:03:22;;;;;;;1.00;0.60;;;14.70;99.90;;;;;;5066727;28;20040;-70
2022/06/15 06:05:48;;;;;;;0.73;0.60;;;14.80;99.90;;;;;;5034574;28;20052;-71
2022/06/15 06:08:13;;;;;;;4.07;1.90;;;14.90;99.90;;;;;;5073064;28;20044;-70
2022/06/15 06:10:40;;;;;;;2.08;1.33;;;15.10;99.90;;;;;;5069401;28;20051;-70
2022/06/15 06:13:06;;;;;;;3.20;1.50;;;15.30;99.90;;;;;;5046846;28;20168;-70
2022/06/15 06:15:32;;;;;;;1.55;1.00;;;15.40;99.90;;;;;;5057731;28;20053;-70
2022/06/15 06:18:01;;;;;;;3.45;1.63;;;15.60;99.90;;;;;;5045181;28;20442;-70
2022/06/15 06:20:27;;;;;;;3.92;1.88;;;15.70;99.90;;;;;;5065556;28;20078;-76
2022/06/15 06:22:52;;;;;;;;;;;15.90;99.90;;;;;;5061364;28;20079;-76
2022/06/15 06:25:18;;;;;;;2.53;1.25;;;16.10;99.90;;;;;;5068072;28;19974;-76
2022/06/15 06:27:44;;;;;;;1.70;1.17;;;16.30;99.90;;;;;;5067785;28;20479;-76
2022/06/15 06:30:11;;;;;;;2.63;1.10;;;16.50;99.90;;;;;;5051744;28;20478;-77
2022/06/15 06:32:37;;;;;;;1.98;0.98;;;16.60;99.90;;;;;;5081370;28;20048;-77
2022/06/15 06:35:03;;;;;;;2.20;1.10;;;16.90;99.90;;;;;;5055937;28;20048;-76
2022/06/15 06:37:32;;;;;;;2.78;1.30;;;17.00;99.90;;;;;;5054991;28;20161;-76
2022/06/15 06:39:58;;;;;;;2.15;1.10;;;17.10;99.90;;;;;;5058724;28;20037;-76
2022/06/15 06:42:23;;;;;;;2.78;1.60;;;17.20;99.90;;;;;;5047089;28;20503;-76
2022/06/15 06:44:49;;;;;;;1.80;1.13;;;17.20;99.90;;;;;;5078015;28;20369;-76
2022/06/15 06:47:15;;;;;;;2.42;1.00;;;17.40;99.90;;;;;;5030110;28;20404;-76
2022/06/15 06:49:41;;;;;;;2.35;0.88;;;17.40;99.90;;;;;;5059944;28;20399;-70
2022/06/15 06:52:07;;;;;;;2.70;1.30;;;17.40;99.90;;;;;;5061332;28;20554;-70
2022/06/15 06:54:33;;;;;;;2.55;1.10;;;17.50;99.90;;;;;;5050174;28;20051;-70
2022/06/15 06:56:59;;;;;;;2.78;1.05;;;17.60;99.90;;;;;;5072078;28;20040;-70
2022/06/15 06:59:25;;;;;;;;;;;17.60;99.90;;;;;;5070277;28;20036;-70
2022/06/15 07:01:50;;;;;;;1.40;1.00;;;17.60;99.90;;;;;;5050241;28;19978;-70
2022/06/15 07:04:17;;;;;;;2.03;0.90;;;17.70;99.90;;;;;;5072039;28;20047;-70
2022/06/15 07:06:44;;;;;;;1.90;0.95;;;17.80;99.90;;;;;;5071940;28;20147;-70
2022/06/15 07:09:10;;;;;;;2.30;1.02;;;17.80;99.90;;;;;;5079706;28;20124;-70
2022/06/15 07:11:36;;;;;;;;;;;17.90;99.90;;;;;;5068790;28;20114;-69
2022/06/15 07:14:02;;;;;;;1.92;0.80;;;17.90;99.90;;;;;;5071126;28;19924;-69
2022/06/15 07:16:28;;;;;;;2.65;1.00;;;18.00;99.90;;;;;;5071296;28;20078;-69
2022/06/15 07:18:54;;;;;;;1.85;0.75;;;18.10;99.90;;;;;;5071094;28;20052;-69
2022/06/15 07:21:20;;;;;;;;;;;18.20;99.90;;;;;;5035390;28;20053;-69
2022/06/15 07:23:49;;;;;;;1.83;0.90;;;18.30;99.90;;;;;;5068874;28;20477;-69
2022/06/15 07:26:19;;;;;;;1.80;0.70;;;18.30;99.90;;;;;;5061400;28;20529;-69
2022/06/15 07:28:45;;;;;;;2.92;1.05;;;18.40;99.90;;;;;;5071287;28;20050;-69
2022/06/15 07:31:18;;;;;;;;;;;18.30;99.90;;;;;;5072067;28;20462;-69
2022/06/15 07:33:43;;;;;;;1.52;0.70;;;18.30;99.90;;;;;;5082827;28;20003;-69
2022/06/15 07:36:09;;;;;;;;;;;18.40;99.90;;;;;;5055145;28;20116;-69
2022/06/15 07:38:35;;;;;;;2.97;1.10;;;18.70;99.90;;;;;;5073983;28;19920;-69
2022/06/15 07:41:02;;;;;;;2.22;0.70;;;18.90;99.90;;;;;;5079587;28;20059;-70
2022/06/15 07:43:28;;;;;;;1.70;0.80;;;19.00;99.90;;;;;;5084538;28;20744;-70
2022/06/15 07:45:53;;;;;;;;;;;18.90;99.90;;;;;;5063962;28;20069;-70
2022/06/15 07:51:03;;;;;;;2.08;0.82;;;18.90;99.90;;;;;;5070847;28;20053;-70
2022/06/15 07:53:29;;;;;;;;;;;19.10;99.90;;;;;;5054553;28;20040;-70
2022/06/15 07:55:56;;;;;;;1.73;0.70;;;19.00;99.90;;;;;;5070688;28;19970;-70
2022/06/15 07:58:22;;;;;;;1.48;0.60;;;19.10;99.90;;;;;;5053776;28;20085;-70
2022/06/15 08:00:49;;;;;;;;;;;19.10;99.90;;;;;;5070734;28;20029;-70
2022/06/15 08:03:16;;;;;;;;;;;19.00;99.90;;;;;;5070387;28;19920;-70
2022/06/15 08:05:45;;;;;;;1.90;0.90;;;19.10;99.90;;;;;;5055398;28;19968;-70
2022/06/15 08:08:21;;;;;;;1.25;0.80;;;18.90;99.90;;;;;;5065528;28;20040;-70
2022/06/15 08:10:48;;;;;;;2.65;1.10;;;18.90;99.90;;;;;;5070973;28;20149;-70
2022/06/15 08:13:15;;;;;;;2.03;0.85;;;18.80;99.90;;;;;;5084484;28;20074;-70
2022/06/15 08:15:44;;;;;;;1.15;0.60;;;18.80;99.90;;;;;;5075063;28;20450;-70
2022/06/15 08:18:17;;;;;;;1.80;0.68;;;18.90;99.90;;;;;;5077343;28;20036;-70
2022/06/15 08:20:49;;;;;;;1.85;0.80;;;19.10;99.90;;;;;;5063457;28;20044;-70
2022/06/15 08:23:20;;;;;;;2.13;0.80;;;19.30;99.90;;;;;;5070435;28;20117;-70
2022/06/15 08:25:55;;;;;;;4.63;1.20;;;19.60;99.90;;;;;;5055654;28;20041;-70
2022/06/15 08:28:25;;;;;;;2.75;1.15;;;19.60;99.90;;;;;;5054589;28;20040;-70
2022/06/15 08:30:52;;;;;;;2.28;0.93;;;19.70;99.90;;;;;;5068104;28;20497;-74
2022/06/15 08:33:19;;;;;;;1.73;0.98;;;20.00;99.90;;;;;;5063064;28;20117;-74
2022/06/15 08:35:45;;;;;;;2.53;0.70;;;20.60;99.90;;;;;;5044690;28;20404;-77
2022/06/15 08:38:15;;;;;;;2.78;1.00;;;20.80;99.90;;;;;;5081028;28;20494;-76
2022/06/15 08:41:15;;;;;;;1.73;0.77;;;21.10;99.90;;;;;;5077211;28;20049;-75
2022/06/15 08:44:19;;;;;;;2.90;0.88;;;21.50;99.90;;;;;;5051023;28;20049;-76
2022/06/15 08:47:06;;;;;;;1.48;0.88;;;21.90;98.40;;;;;;5044351;28;20048;-75
2022/06/15 08:49:47;;;;;;;3.22;1.08;;;21.90;96.30;;;;;;5053677;28;20427;-76
2022/06/15 08:52:22;;;;;;;1.88;0.90;;;21.70;96.40;;;;;;5047268;28;20035;-76
2022/06/15 08:54:56;;;;;;;2.03;0.88;;;21.60;96.10;;;;;;5050416;28;20341;-75
2022/06/15 08:57:53;;;;;;;1.77;0.77;;;21.30;96.80;;;;;;5070159;28;20516;-75
2022/06/15 09:00:33;;;;;;;1.88;0.90;;;21.20;99.40;;;;;;5060324;28;20036;-75
2022/06/15 09:03:21;;;;;;;1.95;0.93;;;21.50;99.90;;;;;;5053712;28;20080;-75
2022/06/15 09:06:11;;;;;;;1.70;0.90;;;21.30;98.20;;;;;;5057164;28;20483;-75
2022/06/15 09:09:02;;;;;;;2.75;0.80;;;21.10;99.90;;;;;;5068516;28;20044;-75
2022/06/15 09:12:49;;;;;;;1.33;0.80;;;20.80;99.90;;;;;;5069992;28;20083;-75
2022/06/15 09:15:02;;;;;;;1.75;0.98;;;20.70;99.90;;;;;;5071202;28;20075;-75
2022/06/15 09:17:30;;;;;;;1.55;0.70;;;20.50;99.40;;;;;;5069534;28;20176;-75
2022/06/15 09:20:05;;;;;;;3.05;1.10;;;20.30;99.50;;;;;;5069761;28;20507;-76
2022/06/15 09:22:37;;;;;;;1.88;0.90;;;19.90;99.90;;;;;;5061915;28;20044;-75
2022/06/15 09:25:21;;;;;;;2.95;0.90;;;19.70;99.90;;;;;;5073697;28;20055;-75
2022/06/15 09:28:03;;;;;;;1.27;0.73;;;19.80;99.90;;;;;;5069620;28;20040;-75
2022/06/15 09:30:33;;;;;;;0.98;0.60;;;20.10;99.90;;;;;;5066201;28;20036;-76
2022/06/15 09:33:06;;;;;;;0.98;0.50;;;20.30;99.80;;;;;;5079223;28;20051;-75
2022/06/15 09:35:46;;;;;;;2.28;0.52;;;20.80;99.90;;;;;;5084094;28;20056;-75
2022/06/15 09:38:14;;;;;;;1.75;0.75;;;21.10;99.20;;;;;;5058726;28;20040;-75
2022/06/15 09:40:56;;;;;;;2.38;0.80;;;21.00;97.10;;;;;;5074746;28;20033;-75
2022/06/15 09:44:06;;;;;;;2.17;0.73;;;21.20;97.50;;;;;;5062587;28;20041;-75
2022/06/15 09:46:32;;;;;;;1.60;0.73;;;20.90;97.20;;;;;;5010848;28;20037;-76
2022/06/15 09:49:27;;;;;;;1.60;1.00;;;20.80;98.70;;;;;;5012104;28;20132;-75
2022/06/15 09:52:02;;;;;;;2.22;1.10;;;20.50;99.10;;;;;;5050766;28;20044;-75
2022/06/15 09:54:47;;;;;;;2.75;1.20;;;20.10;99.10;;;;;;5052564;28;20484;-76
2022/06/15 09:57:13;;;;;;;1.67;0.80;;;19.80;99.90;;;;;;5069179;28;20044;-75
2022/06/15 09:59:39;;;;;;;2.63;1.10;;;19.80;99.90;;;;;;5069409;28;20116;-75
2022/06/15 10:02:15;;;;;;;2.75;1.15;;;19.90;99.90;;;;;;5069272;28;20045;-75
2022/06/15 10:04:43;;;;;;;2.17;1.07;;;19.90;99.90;;;;;;5076277;28;20047;-75
2022/06/15 10:07:29;;;;;;;2.80;1.20;;;20.40;99.90;;;;;;5088986;28;20313;-75
2022/06/15 10:10:01;;;;;;;3.75;1.20;;;20.80;99.90;;;;;;5087873;28;20040;-75
2022/06/15 10:12:58;;;;;;;2.40;0.90;;;21.00;97.70;;;;;;5073323;28;20751;-75
2022/06/15 10:15:27;;;;;;;2.13;0.70;;;20.80;97.40;;;;;;5077683;28;20398;-75
2022/06/15 10:17:57;;;;;;;1.55;0.70;;;20.60;97.30;;;;;;5075788;28;20059;-75
2022/06/15 10:20:25;;;;;;;2.17;0.80;;;20.50;99.70;;;;;;5060629;28;20349;-75
2022/06/15 10:22:54;;;;;;;2.20;0.80;;;20.30;98.20;;;;;;5074324;28;20671;-75
2022/06/15 10:25:22;;;;;;;1.02;0.60;;;20.30;99.80;;;;;;5073060;28;20053;-75
2022/06/15 10:27:47;;;;;;;1.27;0.52;;;20.20;99.90;;;;;;5072815;28;20052;-75
2022/06/15 10:30:15;;;;;;;1.88;0.60;;;20.40;99.70;;;;;;5067229;28;20036;-75
2022/06/15 10:33:13;;;;;;;1.17;0.60;;;20.60;98.00;;;;;;5072659;28;20040;-76
2022/06/15 10:35:39;;;;;;;3.70;1.05;;;20.80;97.00;;;;;;5072666;28;20047;-75
2022/06/15 10:38:14;;;;;;;1.08;0.70;;;20.90;96.70;;;;;;5055853;28;20036;-75
2022/06/15 10:43:48;;;;;;;0.90;0.45;;;21.10;96.30;;;;;;5069018;28;20106;-75
2022/06/15 10:46:15;;;;;;;0.60;0.50;;;21.70;96.60;;;;;;5083698;28;20040;-75
2022/06/15 10:48:52;;;;;;;1.45;0.60;;;22.10;96.20;;;;;;5055960;28;20079;-75
2022/06/15 10:51:33;;;;;;;2.17;0.80;;;22.30;94.60;;;;;;5072584;28;20369;-75
2022/06/15 10:54:17;;;;;;;1.52;0.70;;;22.10;94.70;;;;;;5064350;28;20039;-75
2022/06/15 11:02:38;;;;;;;1.48;0.70;;;22.00;95.10;;;;;;5066707;28;20052;-75
2022/06/15 11:05:22;;;;;;;1.58;0.70;;;21.90;94.20;;;;;;5072060;28;20072;-75
2022/06/15 11:07:55;;;;;;;1.80;0.60;;;21.80;95.00;;;;;;5071919;28;20477;-75
2022/06/15 11:10:48;;;;;;;1.30;0.57;;;22.20;96.20;;;;;;5083988;28;20076;-75
2022/06/15 11:13:28;;;;;;;0.73;0.50;;;22.60;94.10;;;;;;5069857;28;20048;-75
2022/06/15 11:18:46;;;;;;;1.38;0.70;;;22.60;94.50;;;;;;5074728;28;20036;-75
2022/06/15 11:21:18;;;;;;;0.90;0.65;;;22.40;94.10;;;;;;5080262;28;20036;-75
2022/06/15 11:24:06;;;;;;;2.55;1.02;;;22.20;94.10;;;;;;5073244;28;20036;-75
2022/06/15 11:26:59;;;;;;;1.60;0.80;;;21.90;94.90;;;;;;5082823;28;20040;-75
2022/06/15 11:29:49;;;;;;;2.95;1.00;;;21.70;95.10;;;;;;5064832;28;20041;-75
2022/06/15 11:32:53;;;;;;;1.40;0.80;;;21.20;95.40;;;;;;5074945;28;20045;-75
2022/06/15 11:35:39;;;;;;;2.08;1.00;;;21.10;95.70;;;;;;5045177;28;20072;-75
2022/06/15 11:38:24;;;;;;;3.65;1.30;;;20.90;95.80;;;;;;5088777;28;20476;-75
2022/06/15 11:40:54;;;;;;;3.17;1.10;;;20.80;96.00;;;;;;5060320;28;20118;-75
2022/06/15 11:43:31;;;;;;;1.50;0.90;;;20.90;96.70;;;;;;5078736;28;20510;-75
2022/06/15 11:46:10;;;;;;;;;;;21.00;96.90;;;;;;5072166;28;20133;-75
2022/06/15 11:48:54;;;;;;;3.05;1.35;;;21.10;96.70;;;;;;5083854;28;19916;-75
2022/06/15 11:51:32;;;;;;;2.67;1.30;;;21.20;96.20;;;;;;5077151;28;20049;-74
2022/06/15 11:54:00;;;;;;;3.28;1.08;;;21.50;95.90;;;;;;5065343;28;20051;-75
2022/06/15 11:56:37;;;;;;;2.53;1.10;;;21.50;95.60;;;;;;5059600;28;20044;-75
2022/06/15 11:59:16;;;;;;;2.38;1.20;;;21.60;96.10;;;;;;5071384;28;20170;-75
2022/06/15 12:02:22;;;;;;;3.42;1.25;;;21.70;95.70;;;;;;5069401;28;20048;-75
2022/06/15 12:05:01;;;;;;;1.92;1.02;;;21.80;95.90;;;;;;5004575;28;20615;-75
2022/06/15 12:08:03;;;;;;;3.25;1.50;;;22.30;95.20;;;;;;5065077;28;20530;-77
2022/06/15 12:10:35;;;;;;;2.20;0.80;;;22.30;94.30;;;;;;5003672;28;20139;-75
2022/06/15 12:13:15;;;;;;;2.55;0.88;;;22.20;94.10;;;;;;5071402;28;20052;-75
2022/06/15 12:16:03;;;;;;;3.50;1.50;;;22.30;94.10;;;;;;5050092;28;20049;-75
2022/06/15 12:18:51;;;;;;;3.58;1.60;;;22.00;94.20;;;;;;5061273;28;20480;-75
2022/06/15 12:21:58;;;;;;;3.40;1.38;;;21.70;93.70;;;;;;5067258;28;20044;-75
2022/06/15 12:24:34;;;;;;;2.13;1.50;;;21.30;93.50;;;;;;5066236;28;20051;-75
2022/06/15 12:27:11;;;;;;;;;;;20.90;93.90;;;;;;5077561;28;20041;-75
2022/06/15 12:29:43;;;;;;;3.75;2.13;;;20.70;94.10;;;;;;5067427;28;19970;-75
2022/06/15 12:32:34;;;;;;;3.60;1.80;;;20.40;94.20;;;;;;5063947;28;20036;-76
2022/06/15 12:35:15;;;;;;;2.15;1.70;;;20.20;94.50;;;;;;5068939;28;20124;-75
2022/06/15 12:37:48;;;;;;;3.38;1.85;;;20.20;94.90;;;;;;5070438;28;20044;-75
2022/06/15 12:40:39;;;;;;;3.38;1.67;;;20.10;94.90;;;;;;5070544;28;20039;-75
2022/06/15 12:43:13;;;;;;;2.42;1.40;;;20.20;94.90;;;;;;5069233;28;20041;-76
2022/06/15 12:45:47;;;;;;;3.30;1.75;;;20.20;95.20;;;;;;5076738;28;20033;-75
2022/06/15 12:48:37;;;;;;;2.10;1.23;;;20.40;95.20;;;;;;5080020;28;20044;-75
2022/06/15 12:51:17;;;;;;;2.38;1.08;;;20.50;94.70;;;;;;5061719;28;20044;-75
2022/06/15 12:54:04;;;;;;;3.75;1.40;;;20.90;94.80;;;;;;5041597;28;20045;-75
2022/06/15 12:56:46;;;;;;;;;;;21.40;94.80;;;;;;5085051;28;20041;-75
2022/06/15 12:59:28;;;;;;;3.88;1.20;;;21.70;93.90;;;;;;5066307;28;19982;-75
2022/06/15 13:02:11;;;;;;;2.35;1.00;;;22.10;92.80;;;;;;5066065;28;20072;-75
2022/06/15 13:05:13;;;;;;;1.80;1.40;;;22.50;92.80;;;;;;5063232;28;20068;-75
2022/06/15 13:07:41;;;;;;;3.47;1.63;;;22.90;91.90;;;;;;5048597;28;20097;-75
2022/06/15 13:10:07;;;;;;;3.60;1.48;;;22.70;91.20;;;;;;5071519;28;20048;-75
2022/06/15 13:12:36;;;;;;;3.92;1.58;;;22.40;92.40;;;;;;5069661;28;20484;-75
2022/06/15 13:15:02;;;;;;;2.10;1.00;;;22.40;91.90;;;;;;5070560;28;20049;-75
2022/06/15 13:20:58;;;;;;;2.97;1.33;;;23.10;92.10;;;;;;5069316;28;20198;-75
2022/06/15 13:23:24;;;;;;;2.17;1.00;;;23.00;91.10;;;;;;5073171;28;20077;-75
2022/06/15 13:25:54;;;;;;;2.83;1.20;;;23.30;91.50;;;;;;5052237;28;20141;-76
2022/06/15 13:28:31;;;;;;;3.30;1.30;;;23.60;90.70;;;;;;5073812;28;20041;-75
2022/06/15 13:31:00;;;;;;;3.53;1.40;;;23.80;91.00;;;;;;5063271;28;20066;-75
2022/06/15 13:34:00;;;;;;;2.50;1.10;;;23.50;90.20;;;;;;5069491;28;20033;-77
2022/06/15 13:36:26;;;;;;;1.52;1.00;;;23.00;90.50;;;;;;5022108;28;20535;-75
2022/06/15 13:38:53;;;;;;;1.27;0.73;;;22.70;90.50;;;;;;5069281;28;20048;-75